Time;durP1;ratioP1;P1;durP2;ratioP2;P2;SDS_P1;SDS_P2;PMS_P1;PMS_P2;Temp;Humidity;BMP_temperature;BMP_pressure;BME280_temperature;BME280_humidity;BME280_pressure;Samples;Min_cycle;Max_cycle;Signal;HPM_P1;HPM_P2
2022/07/31 00:00:49;;;;;;;4.95;4.55;;;;;;;;;;5098839;28;20264;-71
2022/07/31 00:03:16;;;;;;;4.80;4.40;;;;;;;;;;5098268;28;20627;-70
2022/07/31 00:05:44;;;;;;;4.90;4.47;;;;;;;;;;5098708;28;20195;-70
2022/07/31 00:08:11;;;;;;;4.78;4.38;;;;;;;;;;5098110;28;20241;-71
2022/07/31 00:10:38;;;;;;;5.00;4.60;;;;;;;;;;5098473;28;20232;-72
2022/07/31 00:13:07;;;;;;;4.63;4.30;;;;;;;;;;5098234;28;20192;-72
2022/07/31 00:15:35;;;;;;;4.60;4.28;;;;;;;;;;5098792;28;20204;-72
2022/07/31 00:18:02;;;;;;;4.53;4.22;;;;;;;;;;5098650;28;20595;-71
2022/07/31 00:20:29;;;;;;;4.70;4.30;;;;;;;;;;5099245;28;20196;-71
2022/07/31 00:22:57;;;;;;;4.63;4.22;;;;;;;;;;5098560;28;20230;-72
2022/07/31 00:25:25;;;;;;;5.00;4.60;;;;;;;;;;5098799;28;20253;-72
2022/07/31 00:27:52;;;;;;;4.75;4.35;;;;;;;;;;5098445;28;20242;-71
2022/07/31 00:30:21;;;;;;;4.72;4.22;;;;;;;;;;5097441;28;20274;-72
2022/07/31 00:32:48;;;;;;;4.85;4.38;;;;;;;;;;5099137;28;20214;-72
2022/07/31 00:35:16;;;;;;;4.32;3.92;;;;;;;;;;5098403;28;20253;-72
2022/07/31 00:37:44;;;;;;;4.28;3.90;;;;;;;;;;5097705;28;20287;-71
2022/07/31 00:40:12;;;;;;;4.38;3.97;;;;;;;;;;5098095;28;20268;-71
2022/07/31 00:42:40;;;;;;;4.38;4.07;;;;;;;;;;5097679;28;20599;-72
2022/07/31 00:45:08;;;;;;;4.18;3.88;;;;;;;;;;5098211;28;20204;-72
2022/07/31 00:47:37;;;;;;;4.60;4.30;;;;;;;;;;5098178;28;20196;-72
2022/07/31 00:50:05;;;;;;;4.10;3.80;;;;;;;;;;5098535;28;20242;-72
2022/07/31 00:52:32;;;;;;;3.53;3.33;;;;;;;;;;5098020;28;20723;-71
2022/07/31 00:55:00;;;;;;;4.10;3.80;;;;;;;;;;5098472;28;20261;-71
2022/07/31 00:57:27;;;;;;;4.28;3.97;;;;;;;;;;5098151;28;20622;-71
2022/07/31 00:59:55;;;;;;;4.22;3.83;;;;;;;;;;5097777;28;20208;-70
2022/07/31 01:02:22;;;;;;;4.25;3.92;;;;;;;;;;5097090;28;20218;-71
2022/07/31 01:04:51;;;;;;;4.38;4.05;;;;;;;;;;5098048;28;20266;-70
2022/07/31 01:07:18;;;;;;;6.95;3.90;;;;;;;;;;5098068;28;20641;-72
2022/07/31 01:09:47;;;;;;;4.22;3.83;;;;;;;;;;5098277;28;20243;-72
2022/07/31 01:12:17;;;;;;;4.03;3.72;;;;;;;;;;5097603;28;20199;-70
2022/07/31 01:14:48;;;;;;;4.10;3.80;;;;;;;;;;5097497;28;20199;-72
2022/07/31 01:17:17;;;;;;;4.10;3.70;;;;;;;;;;5097734;28;20203;-71
2022/07/31 01:19:46;;;;;;;4.00;3.70;;;;;;;;;;5098390;28;20211;-71
2022/07/31 01:22:27;;;;;;;3.97;3.67;;;;;;;;;;5097902;28;20543;-71
2022/07/31 01:25:03;;;;;;;3.75;3.55;;;;;;;;;;5098273;28;20261;-70
2022/07/31 01:27:32;;;;;;;4.15;3.75;;;;;;;;;;5097260;28;20542;-72
2022/07/31 01:30:02;;;;;;;3.88;3.58;;;;;;;;;;5097595;28;20196;-72
2022/07/31 01:32:32;;;;;;;3.80;3.58;;;;;;;;;;5082344;28;20207;-72
2022/07/31 01:35:03;;;;;;;3.80;3.47;;;;;;;;;;5097873;28;20502;-72
2022/07/31 01:37:31;;;;;;;3.85;3.55;;;;;;;;;;5097468;28;20479;-72
2022/07/31 01:40:02;;;;;;;3.90;3.40;;;;;;;;;;5097706;28;20211;-72
2022/07/31 01:42:29;;;;;;;3.95;3.65;;;;;;;;;;5097242;28;20199;-72
2022/07/31 01:45:00;;;;;;;3.90;3.70;;;;;;;;;;5097780;28;20261;-72
2022/07/31 01:47:30;;;;;;;3.10;2.90;;;;;;;;;;5097406;28;20302;-72
2022/07/31 01:49:58;;;;;;;4.03;3.72;;;;;;;;;;5097123;28;20188;-72
2022/07/31 01:52:27;;;;;;;3.78;3.47;;;;;;;;;;5097087;28;20306;-72
2022/07/31 01:54:55;;;;;;;3.40;3.20;;;;;;;;;;5097591;28;20223;-72
2022/07/31 01:57:24;;;;;;;4.07;3.80;;;;;;;;;;5096704;28;20208;-72
2022/07/31 01:59:53;;;;;;;3.83;3.53;;;;;;;;;;5097215;28;20238;-72
2022/07/31 02:02:21;;;;;;;3.70;3.50;;;;;;;;;;5095605;28;20261;-72
2022/07/31 02:04:50;;;;;;;3.55;3.35;;;;;;;;;;5097251;28;20223;-72
2022/07/31 02:07:18;;;;;;;3.25;3.05;;;;;;;;;;5097658;28;20215;-72
2022/07/31 02:09:47;;;;;;;3.58;3.28;;;;;;;;;;5096981;28;20558;-72
2022/07/31 02:12:15;;;;;;;3.65;3.38;;;;;;;;;;5095625;28;20200;-71
2022/07/31 02:14:42;;;;;;;3.83;3.55;;;;;;;;;;5097144;28;20200;-72
2022/07/31 02:17:10;;;;;;;3.60;3.40;;;;;;;;;;5096478;28;20196;-72
2022/07/31 02:19:39;;;;;;;3.22;3.03;;;;;;;;;;5095951;28;20200;-72
2022/07/31 02:22:08;;;;;;;3.90;3.60;;;;;;;;;;5096766;28;20249;-72
2022/07/31 02:24:36;;;;;;;3.80;3.58;;;;;;;;;;5096798;28;20672;-72
2022/07/31 02:27:03;;;;;;;3.30;3.00;;;;;;;;;;5097066;28;20203;-72
2022/07/31 02:29:32;;;;;;;3.60;3.30;;;;;;;;;;5097279;28;20195;-72
2022/07/31 02:32:01;;;;;;;3.53;3.22;;;;;;;;;;5096581;28;20254;-71
2022/07/31 02:34:29;;;;;;;3.50;3.30;;;;;;;;;;5096584;28;20261;-72
2022/07/31 02:36:57;;;;;;;3.63;3.40;;;;;;;;;;5096615;28;20240;-73
2022/07/31 02:39:26;;;;;;;3.40;3.20;;;;;;;;;;5096781;28;20215;-72
2022/07/31 02:41:56;;;;;;;3.20;3.00;;;;;;;;;;5095753;28;20196;-72
2022/07/31 02:44:24;;;;;;;3.40;3.20;;;;;;;;;;5096721;28;20228;-72
2022/07/31 02:46:52;;;;;;;3.15;2.95;;;;;;;;;;5096031;28;20199;-72
2022/07/31 02:49:19;;;;;;;3.10;2.90;;;;;;;;;;5096707;28;20265;-72
2022/07/31 02:51:47;;;;;;;3.25;3.05;;;;;;;;;;5096332;28;20200;-72
2022/07/31 02:54:15;;;;;;;3.28;3.08;;;;;;;;;;5096313;28;20200;-72
2022/07/31 02:56:43;;;;;;;3.53;3.22;;;;;;;;;;5096569;28;20199;-72
2022/07/31 02:59:10;;;;;;;3.28;3.08;;;;;;;;;;5096810;28;20268;-72
2022/07/31 03:01:38;;;;;;;3.42;3.22;;;;;;;;;;5095703;28;20423;-72
2022/07/31 03:04:07;;;;;;;3.15;2.95;;;;;;;;;;5096211;28;20322;-71
2022/07/31 03:06:34;;;;;;;3.20;3.00;;;;;;;;;;5095805;28;20504;-72
2022/07/31 03:09:01;;;;;;;3.30;3.10;;;;;;;;;;5075527;28;20548;-75
2022/07/31 03:11:29;;;;;;;3.30;3.10;;;;;;;;;;5076325;28;20200;-72
2022/07/31 03:13:58;;;;;;;3.15;2.95;;;;;;;;;;5076785;28;20200;-72
2022/07/31 03:16:26;;;;;;;3.30;3.10;;;;;;;;;;5076636;28;20205;-72
2022/07/31 03:18:53;;;;;;;3.50;3.30;;;;;;;;;;5076015;28;20520;-72
2022/07/31 03:21:21;;;;;;;3.00;2.80;;;;;;;;;;5075873;28;20227;-72
2022/07/31 03:23:49;;;;;;;3.10;2.90;;;;;;;;;;5076011;28;20486;-72
2022/07/31 03:26:16;;;;;;;3.17;2.97;;;;;;;;;;5076344;28;20212;-72
2022/07/31 03:28:44;;;;;;;3.08;2.88;;;;;;;;;;5076490;28;20197;-72
2022/07/31 03:31:13;;;;;;;3.13;2.92;;;;;;;;;;5078642;28;20258;-72
2022/07/31 03:33:41;;;;;;;3.30;3.10;;;;;;;;;;5080432;28;20285;-72
2022/07/31 03:36:09;;;;;;;3.08;2.88;;;;;;;;;;5080162;28;20262;-72
2022/07/31 03:38:36;;;;;;;3.00;2.80;;;;;;;;;;5080111;28;20212;-72
2022/07/31 03:41:04;;;;;;;3.50;3.30;;;;;;;;;;5079592;28;20204;-72
2022/07/31 03:43:32;;;;;;;3.10;2.90;;;;;;;;;;5079732;28;20224;-72
2022/07/31 03:46:01;;;;;;;3.15;2.95;;;;;;;;;;5079585;28;20231;-72
2022/07/31 03:48:31;;;;;;;3.17;2.97;;;;;;;;;;5074997;28;20205;-72
2022/07/31 03:50:59;;;;;;;3.40;3.10;;;;;;;;;;5065279;28;20204;-72
2022/07/31 03:53:27;;;;;;;3.00;2.80;;;;;;;;;;5078824;28;20669;-72
2022/07/31 03:55:55;;;;;;;3.17;2.97;;;;;;;;;;5078537;28;20200;-72
2022/07/31 03:58:22;;;;;;;3.08;2.88;;;;;;;;;;5079019;28;20243;-72
2022/07/31 04:00:50;;;;;;;3.35;3.15;;;;;;;;;;5079145;28;20209;-72
2022/07/31 04:03:18;;;;;;;3.25;3.05;;;;;;;;;;5079064;28;20211;-72
2022/07/31 04:05:46;;;;;;;3.20;3.00;;;;;;;;;;5078996;28;20262;-72
2022/07/31 04:08:16;;;;;;;3.30;3.10;;;;;;;;;;5079229;28;20209;-72
2022/07/31 04:10:43;;;;;;;3.20;3.00;;;;;;;;;;5096759;28;20227;-72
2022/07/31 04:13:10;;;;;;;3.10;2.90;;;;;;;;;;5098888;28;20553;-72
2022/07/31 04:15:37;;;;;;;3.30;3.10;;;;;;;;;;5099020;28;20564;-72
2022/07/31 04:18:05;;;;;;;3.08;2.88;;;;;;;;;;5098960;28;20195;-72
2022/07/31 04:20:32;;;;;;;3.28;3.08;;;;;;;;;;5099268;28;20214;-72
2022/07/31 04:23:02;;;;;;;3.20;3.00;;;;;;;;;;5099425;28;20603;-72
2022/07/31 04:25:30;;;;;;;3.10;2.90;;;;;;;;;;5099202;28;20333;-72
2022/07/31 04:27:57;;;;;;;3.22;3.03;;;;;;;;;;5098651;28;20233;-72
2022/07/31 04:30:24;;;;;;;3.30;3.10;;;;;;;;;;5099696;28;20207;-72
2022/07/31 04:32:53;;;;;;;2.97;2.80;;;;;;;;;;5078305;28;20204;-72
2022/07/31 04:35:20;;;;;;;3.20;3.00;;;;;;;;;;5537904;22;20313;-72
2022/07/31 04:37:48;;;;;;;3.00;2.80;;;;;;;;;;5078543;28;20239;-72
2022/07/31 04:40:16;;;;;;;2.95;2.75;;;;;;;;;;5078660;28;20208;-72
2022/07/31 04:42:44;;;;;;;3.28;3.08;;;;;;;;;;5077948;28;20197;-72
2022/07/31 04:45:11;;;;;;;3.30;3.10;;;;;;;;;;5078618;28;20545;-72
2022/07/31 04:47:38;;;;;;;3.20;3.00;;;;;;;;;;5078466;28;20196;-72
2022/07/31 04:50:06;;;;;;;2.80;2.60;;;;;;;;;;5079174;28;20771;-72
2022/07/31 04:52:34;;;;;;;2.88;2.67;;;;;;;;;;5078541;28;20211;-72
2022/07/31 04:55:01;;;;;;;3.10;2.90;;;;;;;;;;5079111;28;20212;-72
2022/07/31 04:57:30;;;;;;;3.22;3.03;;;;;;;;;;5078409;28;20231;-72
2022/07/31 04:59:58;;;;;;;2.92;2.72;;;;;;;;;;5079298;28;20737;-72
2022/07/31 05:02:25;;;;;;;3.13;3.00;;;;;;;;;;5078336;28;20572;-72
2022/07/31 05:04:52;;;;;;;3.10;2.90;;;;;;;;;;5078462;28;20228;-72
2022/07/31 05:07:20;;;;;;;3.10;2.90;;;;;;;;;;5078220;28;20624;-72
2022/07/31 05:09:47;;;;;;;3.13;2.92;;;;;;;;;;5078608;28;20201;-72
2022/07/31 05:12:15;;;;;;;3.25;3.05;;;;;;;;;;5078387;28;20564;-72
2022/07/31 05:14:44;;;;;;;3.22;3.03;;;;;;;;;;5077654;28;20204;-72
2022/07/31 05:17:11;;;;;;;3.10;2.90;;;;;;;;;;5078121;28;20615;-72
2022/07/31 05:19:38;;;;;;;3.05;2.85;;;;;;;;;;5058319;28;20205;-72
2022/07/31 05:22:06;;;;;;;3.33;3.13;;;;;;;;;;5072476;28;20197;-72
2022/07/31 05:24:33;;;;;;;3.20;3.00;;;;;;;;;;5077803;28;20281;-72
2022/07/31 05:27:01;;;;;;;3.00;2.80;;;;;;;;;;5077655;28;20201;-72
2022/07/31 05:29:28;;;;;;;3.00;2.80;;;;;;;;;;5078306;28;20204;-72
2022/07/31 05:31:57;;;;;;;3.28;3.08;;;;;;;;;;5077373;28;20212;-72
2022/07/31 05:34:24;;;;;;;2.90;2.70;;;;;;;;;;5077806;28;20483;-72
2022/07/31 05:36:52;;;;;;;2.90;2.75;;;;;;;;;;5077055;28;20694;-72
2022/07/31 05:39:20;;;;;;;3.35;3.15;;;;;;;;;;5077331;28;20488;-72
2022/07/31 05:41:50;;;;;;;3.22;3.03;;;;;;;;;;5077205;28;20619;-72
2022/07/31 05:44:17;;;;;;;3.15;2.95;;;;;;;;;;5077504;28;20228;-73
2022/07/31 05:46:44;;;;;;;3.17;2.97;;;;;;;;;;5077416;28;20204;-72
2022/07/31 05:49:13;;;;;;;3.38;3.17;;;;;;;;;;5077491;28;20200;-72
2022/07/31 05:51:43;;;;;;;3.17;2.97;;;;;;;;;;5077868;28;20522;-72
2022/07/31 05:54:10;;;;;;;3.20;3.00;;;;;;;;;;5076816;28;20559;-72
2022/07/31 05:56:38;;;;;;;2.88;2.67;;;;;;;;;;5077229;28;20204;-72
2022/07/31 05:59:05;;;;;;;3.00;2.80;;;;;;;;;;5076993;28;20204;-72
2022/07/31 06:01:33;;;;;;;3.15;2.95;;;;;;;;;;5077119;28;20208;-72
2022/07/31 06:04:01;;;;;;;3.20;3.00;;;;;;;;;;5076905;28;20626;-72
2022/07/31 06:06:30;;;;;;;3.33;3.13;;;;;;;;;;5076669;28;20227;-72
2022/07/31 06:08:57;;;;;;;2.70;2.60;;;;;;;;;;5076079;28;20197;-72
2022/07/31 06:11:25;;;;;;;3.00;2.80;;;;;;;;;;5076871;28;20211;-72
2022/07/31 06:13:52;;;;;;;3.28;3.08;;;;;;;;;;5077571;28;20196;-72
2022/07/31 06:16:19;;;;;;;2.55;2.45;;;;;;;;;;5076774;28;20262;-72
2022/07/31 06:18:46;;;;;;;3.20;3.00;;;;;;;;;;5077060;28;20568;-72
2022/07/31 06:21:14;;;;;;;3.53;2.75;;;;;;;;;;5076977;28;20211;-72
2022/07/31 06:23:43;;;;;;;2.90;2.80;;;;;;;;;;5076877;28;20211;-72
2022/07/31 06:26:10;;;;;;;3.03;2.83;;;;;;;;;;5076782;28;20258;-72
2022/07/31 06:28:38;;;;;;;3.13;2.92;;;;;;;;;;5076125;28;20204;-72
2022/07/31 06:31:05;;;;;;;2.75;2.65;;;;;;;;;;5076557;28;20216;-72
2022/07/31 06:33:33;;;;;;;2.88;2.67;;;;;;;;;;5077122;28;20218;-72
2022/07/31 06:36:00;;;;;;;3.10;2.90;;;;;;;;;;5076079;28;20277;-72
2022/07/31 06:38:29;;;;;;;2.97;2.78;;;;;;;;;;5076210;28;20216;-72
2022/07/31 06:40:58;;;;;;;3.20;3.00;;;;;;;;;;5076500;28;20557;-72
2022/07/31 06:43:25;;;;;;;3.30;3.10;;;;;;;;;;5077238;28;20212;-72
2022/07/31 06:45:52;;;;;;;3.20;3.00;;;;;;;;;;5076681;28;20224;-72
2022/07/31 06:48:20;;;;;;;2.92;2.72;;;;;;;;;;5075977;28;20499;-72
2022/07/31 06:50:47;;;;;;;3.15;2.95;;;;;;;;;;5076620;28;20208;-72
2022/07/31 06:53:15;;;;;;;3.60;3.30;;;;;;;;;;5076721;28;20299;-72
2022/07/31 06:55:42;;;;;;;3.15;2.95;;;;;;;;;;5076433;28;20197;-72
2022/07/31 06:58:11;;;;;;;2.70;2.60;;;;;;;;;;5076189;28;20254;-72
2022/07/31 07:00:38;;;;;;;3.35;3.05;;;;;;;;;;5077066;28;20203;-72
2022/07/31 07:03:06;;;;;;;2.97;2.78;;;;;;;;;;5077177;28;20630;-72
2022/07/31 07:05:33;;;;;;;2.90;2.70;;;;;;;;;;5079267;28;20235;-72
2022/07/31 07:08:00;;;;;;;3.15;2.95;;;;;;;;;;5080631;28;20204;-72
2022/07/31 07:10:27;;;;;;;3.00;2.80;;;;;;;;;;5079937;28;20295;-72
2022/07/31 07:12:55;;;;;;;3.13;2.92;;;;;;;;;;5080831;28;20576;-72
2022/07/31 07:15:24;;;;;;;3.00;2.80;;;;;;;;;;5080245;28;20200;-72
2022/07/31 07:17:51;;;;;;;3.10;2.90;;;;;;;;;;5079279;28;20201;-72
2022/07/31 07:20:18;;;;;;;3.00;2.80;;;;;;;;;;5079107;28;20214;-72
2022/07/31 07:22:46;;;;;;;3.28;3.08;;;;;;;;;;5079763;28;20214;-72
2022/07/31 07:25:13;;;;;;;2.90;2.70;;;;;;;;;;5078803;28;20228;-72
2022/07/31 07:27:41;;;;;;;3.15;2.95;;;;;;;;;;5078829;28;20274;-72
2022/07/31 07:30:08;;;;;;;3.00;2.80;;;;;;;;;;5079249;28;20205;-72
2022/07/31 07:32:37;;;;;;;3.15;2.95;;;;;;;;;;5078002;28;20200;-72
2022/07/31 07:35:05;;;;;;;2.90;2.70;;;;;;;;;;5079223;28;20534;-72
2022/07/31 07:37:33;;;;;;;2.70;2.50;;;;;;;;;;5059159;28;20252;-72
2022/07/31 07:40:00;;;;;;;2.83;2.63;;;;;;;;;;5058709;28;20205;-72
2022/07/31 07:42:28;;;;;;;3.20;3.00;;;;;;;;;;5059210;28;20729;-72
2022/07/31 07:44:55;;;;;;;2.60;2.50;;;;;;;;;;5057568;28;20217;-72
2022/07/31 07:47:22;;;;;;;3.10;2.90;;;;;;;;;;5058768;28;20255;-72
2022/07/31 07:49:51;;;;;;;2.70;2.60;;;;;;;;;;5057955;28;20219;-72
2022/07/31 07:52:18;;;;;;;3.08;2.88;;;;;;;;;;5057776;28;20622;-72
2022/07/31 07:54:45;;;;;;;3.00;2.80;;;;;;;;;;5057644;28;20209;-72
2022/07/31 07:57:15;;;;;;;2.58;2.47;;;;;;;;;;5056987;28;20194;-72
2022/07/31 07:59:43;;;;;;;2.60;2.50;;;;;;;;;;5057828;28;20284;-71
2022/07/31 08:02:11;;;;;;;2.53;2.42;;;;;;;;;;5058008;28;20208;-71
2022/07/31 08:04:38;;;;;;;2.60;2.50;;;;;;;;;;5057750;28;20295;-72
2022/07/31 08:07:07;;;;;;;2.50;2.40;;;;;;;;;;5057723;28;20270;-72
2022/07/31 08:09:35;;;;;;;2.40;2.30;;;;;;;;;;5057899;28;20224;-72
2022/07/31 08:12:02;;;;;;;2.70;2.50;;;;;;;;;;5056679;28;20270;-72
2022/07/31 08:14:30;;;;;;;3.08;2.88;;;;;;;;;;5058048;28;20251;-72
2022/07/31 08:16:57;;;;;;;2.60;2.50;;;;;;;;;;5056687;28;20267;-72
2022/07/31 08:19:25;;;;;;;2.70;2.50;;;;;;;;;;5056877;28;20204;-71
2022/07/31 08:21:52;;;;;;;2.90;2.70;;;;;;;;;;5056749;28;20208;-71
2022/07/31 08:24:21;;;;;;;2.55;2.45;;;;;;;;;;5056427;28;20201;-71
2022/07/31 08:29:33;;;;;;;3.00;2.80;;;;;;;;;;5056691;28;20267;-71
2022/07/31 08:32:00;;;;;;;2.97;2.78;;;;;;;;;;5056461;28;20748;-72
2022/07/31 08:34:28;;;;;;;2.80;2.60;;;;;;;;;;5058378;28;20478;-71
2022/07/31 08:36:55;;;;;;;2.92;2.72;;;;;;;;;;5070980;28;20220;-71
2022/07/31 08:39:23;;;;;;;2.92;2.72;;;;;;;;;;5077941;28;20267;-71
2022/07/31 08:41:51;;;;;;;3.25;3.00;;;;;;;;;;5077067;28;20200;-71
2022/07/31 08:44:18;;;;;;;2.88;2.67;;;;;;;;;;5076994;28;20540;-72
2022/07/31 08:46:46;;;;;;;2.90;2.70;;;;;;;;;;5077413;28;20278;-71
2022/07/31 08:49:16;;;;;;;2.85;2.65;;;;;;;;;;5076576;28;20576;-71
2022/07/31 08:51:44;;;;;;;2.97;2.78;;;;;;;;;;5076671;28;20196;-71
2022/07/31 08:54:12;;;;;;;2.83;2.72;;;;;;;;;;5075985;28;20434;-72
2022/07/31 08:56:41;;;;;;;2.90;2.70;;;;;;;;;;5076635;28;20633;-71
2022/07/31 08:59:09;;;;;;;2.78;2.60;;;;;;;;;;5076327;28;20608;-71
2022/07/31 09:01:37;;;;;;;2.70;2.50;;;;;;;;;;5076734;28;20252;-71
2022/07/31 09:04:05;;;;;;;2.70;2.55;;;;;;;;;;5075905;28;20542;-72
2022/07/31 09:06:33;;;;;;;2.95;2.75;;;;;;;;;;5075639;28;20646;-71
2022/07/31 09:09:00;;;;;;;2.90;2.70;;;;;;;;;;5076788;28;20239;-71
2022/07/31 09:11:28;;;;;;;3.15;2.95;;;;;;;;;;5075946;28;20212;-71
2022/07/31 09:13:57;;;;;;;2.80;2.63;;;;;;;;;;5075995;28;20216;-72
2022/07/31 09:16:24;;;;;;;2.85;2.65;;;;;;;;;;5077097;28;20208;-71
2022/07/31 09:18:56;;;;;;;3.00;2.80;;;;;;;;;;5076541;28;20592;-71
2022/07/31 09:21:24;;;;;;;2.83;2.70;;;;;;;;;;5076764;28;20456;-71
2022/07/31 09:23:53;;;;;;;3.35;2.97;;;;;;;;;;5075446;28;20238;-72
2022/07/31 09:26:20;;;;;;;3.10;2.90;;;;;;;;;;5076227;28;20220;-71
2022/07/31 09:28:50;;;;;;;3.17;2.97;;;;;;;;;;5076649;28;20501;-71
2022/07/31 09:31:18;;;;;;;2.83;2.63;;;;;;;;;;5074814;28;20604;-71
2022/07/31 09:33:46;;;;;;;2.70;2.60;;;;;;;;;;5074994;28;20502;-71
2022/07/31 09:36:14;;;;;;;2.88;2.78;;;;;;;;;;5075084;28;20220;-71
2022/07/31 09:38:43;;;;;;;2.90;2.70;;;;;;;;;;5075827;28;20200;-71
2022/07/31 09:41:11;;;;;;;2.80;2.65;;;;;;;;;;5075522;28;20265;-71
2022/07/31 09:43:38;;;;;;;3.08;2.88;;;;;;;;;;5076345;28;20204;-71
2022/07/31 09:46:06;;;;;;;2.60;2.50;;;;;;;;;;5076104;28;20219;-71
2022/07/31 09:48:35;;;;;;;2.92;2.72;;;;;;;;;;5076487;28;20205;-71
2022/07/31 09:51:05;;;;;;;2.90;2.70;;;;;;;;;;5076064;28;20246;-71
2022/07/31 09:53:42;;;;;;;2.80;2.60;;;;;;;;;;5076149;28;20212;-71
2022/07/31 09:56:11;;;;;;;2.60;2.40;;;;;;;;;;5075704;28;20199;-71
2022/07/31 09:58:39;;;;;;;3.00;2.80;;;;;;;;;;5075341;28;20205;-71
2022/07/31 10:01:08;;;;;;;3.08;2.88;;;;;;;;;;5075750;28;20218;-72
2022/07/31 10:03:37;;;;;;;3.10;2.80;;;;;;;;;;5075553;28;20204;-71
2022/07/31 10:06:06;;;;;;;2.97;2.78;;;;;;;;;;5074640;28;20627;-71
2022/07/31 10:08:35;;;;;;;3.10;2.90;;;;;;;;;;5076158;28;20227;-71
2022/07/31 10:11:02;;;;;;;2.92;2.78;;;;;;;;;;5075231;28;20198;-71
2022/07/31 10:13:31;;;;;;;3.00;2.80;;;;;;;;;;5075748;28;20318;-71
2022/07/31 10:16:00;;;;;;;3.00;2.80;;;;;;;;;;5075063;28;20254;-71
2022/07/31 10:18:29;;;;;;;3.10;2.90;;;;;;;;;;5076371;28;20542;-72
2022/07/31 10:20:58;;;;;;;2.97;2.78;;;;;;;;;;5075670;28;20588;-72
2022/07/31 10:23:27;;;;;;;3.08;2.88;;;;;;;;;;5074810;28;20607;-71
2022/07/31 10:25:59;;;;;;;3.38;2.95;;;;;;;;;;5075049;28;20231;-71
2022/07/31 10:28:28;;;;;;;3.03;2.83;;;;;;;;;;5075534;28;20592;-71
2022/07/31 10:30:55;;;;;;;3.25;3.03;;;;;;;;;;5075161;28;20245;-71
2022/07/31 10:33:23;;;;;;;2.70;2.55;;;;;;;;;;5073800;28;20199;-72
2022/07/31 10:35:53;;;;;;;3.20;3.00;;;;;;;;;;5074294;28;20252;-71
2022/07/31 10:38:24;;;;;;;2.97;2.78;;;;;;;;;;5074807;28;20657;-71
2022/07/31 10:40:55;;;;;;;3.00;2.80;;;;;;;;;;5073693;28;20708;-71
2022/07/31 10:43:25;;;;;;;3.25;3.05;;;;;;;;;;5074164;28;20204;-71
2022/07/31 10:45:54;;;;;;;3.08;2.80;;;;;;;;;;5074130;28;20220;-71
2022/07/31 10:48:21;;;;;;;3.00;2.80;;;;;;;;;;5073890;28;20200;-71
2022/07/31 10:50:49;;;;;;;2.78;2.60;;;;;;;;;;5075128;28;20204;-72
2022/07/31 10:53:18;;;;;;;2.75;2.58;;;;;;;;;;5074767;28;20204;-72
2022/07/31 10:55:47;;;;;;;2.70;2.50;;;;;;;;;;5074425;28;20197;-72
2022/07/31 10:58:15;;;;;;;2.83;2.65;;;;;;;;;;5074607;28;20258;-71
2022/07/31 11:00:44;;;;;;;3.10;2.80;;;;;;;;;;5075400;28;20292;-73
2022/07/31 11:03:18;;;;;;;3.38;3.08;;;;;;;;;;5074476;28;20204;-72
2022/07/31 11:05:55;;;;;;;3.15;2.95;;;;;;;;;;5074583;28;20204;-71
2022/07/31 11:08:22;;;;;;;3.33;3.03;;;;;;;;;;5075229;28;20200;-71
2022/07/31 11:10:52;;;;;;;3.03;2.83;;;;;;;;;;5074120;28;20479;-71
2022/07/31 11:13:20;;;;;;;3.05;2.85;;;;;;;;;;5074223;28;20216;-71
2022/07/31 11:15:48;;;;;;;2.78;2.67;;;;;;;;;;5074423;28;20212;-71
2022/07/31 11:18:16;;;;;;;3.28;3.08;;;;;;;;;;5073468;28;20205;-71
2022/07/31 11:20:45;;;;;;;3.35;3.08;;;;;;;;;;5073966;28;20246;-71
2022/07/31 11:23:15;;;;;;;3.05;2.80;;;;;;;;;;5074268;28;20216;-71
2022/07/31 11:25:43;;;;;;;2.95;2.75;;;;;;;;;;5074238;28;20250;-72
2022/07/31 11:28:12;;;;;;;2.95;2.75;;;;;;;;;;5075133;28;20269;-72
2022/07/31 11:30:49;;;;;;;3.15;2.90;;;;;;;;;;5073654;28;20201;-72
2022/07/31 11:33:17;;;;;;;3.53;3.15;;;;;;;;;;5076072;28;20206;-72
2022/07/31 11:35:44;;;;;;;3.10;2.90;;;;;;;;;;5075316;28;20223;-72
2022/07/31 11:38:11;;;;;;;3.15;2.95;;;;;;;;;;5075399;28;20269;-72
2022/07/31 11:40:39;;;;;;;3.28;3.08;;;;;;;;;;5075038;28;20201;-72
2022/07/31 11:43:08;;;;;;;3.67;3.35;;;;;;;;;;5074704;28;20199;-72
2022/07/31 11:45:48;;;;;;;3.53;3.22;;;;;;;;;;5075345;28;20197;-72
2022/07/31 11:48:16;;;;;;;3.55;3.30;;;;;;;;;;5075522;28;20197;-71
2022/07/31 11:50:43;;;;;;;3.40;3.20;;;;;;;;;;5075017;28;20541;-71
2022/07/31 11:53:13;;;;;;;4.05;3.40;;;;;;;;;;5077895;28;20197;-72
2022/07/31 11:55:59;;;;;;;3.53;3.22;;;;;;;;;;5077723;28;20561;-71
2022/07/31 11:58:28;;;;;;;3.30;3.10;;;;;;;;;;5078440;28;20246;-71
2022/07/31 12:00:57;;;;;;;3.72;3.42;;;;;;;;;;5077358;28;20283;-72
2022/07/31 12:03:25;;;;;;;3.50;3.30;;;;;;;;;;5078294;28;20204;-71
2022/07/31 12:05:53;;;;;;;3.17;2.97;;;;;;;;;;5077462;28;20204;-72
2022/07/31 12:08:21;;;;;;;3.70;3.40;;;;;;;;;;5076981;28;20228;-71
2022/07/31 12:10:48;;;;;;;3.58;3.28;;;;;;;;;;5076590;28;20210;-71
2022/07/31 12:13:17;;;;;;;3.90;3.60;;;;;;;;;;5077098;28;20215;-71
2022/07/31 12:16:00;;;;;;;3.70;3.40;;;;;;;;;;5077203;28;20207;-71
2022/07/31 12:18:27;;;;;;;3.72;3.50;;;;;;;;;;5076999;28;20200;-71
2022/07/31 12:20:55;;;;;;;3.45;3.20;;;;;;;;;;5076659;28;20509;-72
2022/07/31 12:23:23;;;;;;;3.67;3.38;;;;;;;;;;5077428;28;20211;-71
2022/07/31 12:25:50;;;;;;;3.33;3.13;;;;;;;;;;5077132;28;20295;-71
2022/07/31 12:28:17;;;;;;;3.72;3.42;;;;;;;;;;5075912;28;20227;-72
2022/07/31 12:30:46;;;;;;;3.47;3.10;;;;;;;;;;5075246;28;20607;-71
2022/07/31 12:33:15;;;;;;;3.88;3.58;;;;;;;;;;5076604;28;20200;-71
2022/07/31 12:35:44;;;;;;;3.83;3.53;;;;;;;;;;5075970;28;20228;-72
2022/07/31 12:38:11;;;;;;;3.63;3.33;;;;;;;;;;5076690;28;20204;-72
2022/07/31 12:40:38;;;;;;;4.10;3.75;;;;;;;;;;5075752;28;20204;-72
2022/07/31 12:43:05;;;;;;;3.83;3.53;;;;;;;;;;5075926;28;20208;-72
2022/07/31 12:45:34;;;;;;;3.90;3.60;;;;;;;;;;5075807;28;20553;-71
2022/07/31 12:48:02;;;;;;;4.10;3.60;;;;;;;;;;5075601;28;20239;-72
2022/07/31 12:50:31;;;;;;;3.40;3.20;;;;;;;;;;5075414;28;20196;-71
2022/07/31 12:53:00;;;;;;;3.53;3.22;;;;;;;;;;5076270;28;20548;-71
2022/07/31 12:55:28;;;;;;;3.33;3.10;;;;;;;;;;5077436;28;20207;-71
2022/07/31 12:57:55;;;;;;;4.47;3.35;;;;;;;;;;5075426;28;20520;-71
2022/07/31 13:00:23;;;;;;;4.05;3.75;;;;;;;;;;5072967;28;20200;-71
2022/07/31 13:02:51;;;;;;;3.97;3.35;;;;;;;;;;5075799;28;20547;-71
2022/07/31 13:05:18;;;;;;;5.38;3.28;;;;;;;;;;5075570;28;20193;-71
2022/07/31 13:07:47;;;;;;;3.42;3.10;;;;;;;;;;5076852;28;20305;-71
2022/07/31 13:10:14;;;;;;;4.45;3.35;;;;;;;;;;5076867;28;20273;-72
2022/07/31 13:12:41;;;;;;;3.78;3.50;;;;;;;;;;5076497;28;20261;-72
2022/07/31 13:15:09;;;;;;;3.55;3.25;;;;;;;;;;5076698;28;20298;-72
2022/07/31 13:17:37;;;;;;;3.72;3.42;;;;;;;;;;5075443;28;20543;-71
2022/07/31 13:20:04;;;;;;;3.60;3.30;;;;;;;;;;5074986;28;20265;-72
2022/07/31 13:22:31;;;;;;;3.63;3.30;;;;;;;;;;5075467;28;20550;-72
2022/07/31 13:25:00;;;;;;;3.83;3.47;;;;;;;;;;5076488;28;20212;-72
2022/07/31 13:27:28;;;;;;;3.42;3.22;;;;;;;;;;5075397;28;20224;-73
2022/07/31 13:29:55;;;;;;;3.65;3.35;;;;;;;;;;5074577;28;20668;-72
2022/07/31 13:32:22;;;;;;;3.67;3.38;;;;;;;;;;5075186;28;20212;-72
2022/07/31 13:34:50;;;;;;;3.67;3.38;;;;;;;;;;5075067;28;20205;-74
2022/07/31 13:37:17;;;;;;;4.25;3.00;;;;;;;;;;5075023;28;20277;-73
2022/07/31 13:39:45;;;;;;;3.42;3.15;;;;;;;;;;5075362;28;20197;-73
2022/07/31 13:42:14;;;;;;;4.05;3.05;;;;;;;;;;5075595;28;20269;-73
2022/07/31 13:44:41;;;;;;;4.05;3.40;;;;;;;;;;5076372;28;20247;-73
2022/07/31 13:47:09;;;;;;;3.50;3.22;;;;;;;;;;5074609;28;20270;-74
2022/07/31 13:49:36;;;;;;;3.30;3.10;;;;;;;;;;5074879;28;20200;-73
2022/07/31 13:52:03;;;;;;;3.53;3.33;;;;;;;;;;5075299;28;20207;-73
2022/07/31 13:54:31;;;;;;;3.45;3.25;;;;;;;;;;5075461;28;20208;-73
2022/07/31 13:56:58;;;;;;;3.25;3.05;;;;;;;;;;5074857;28;20498;-73
2022/07/31 13:59:28;;;;;;;3.50;3.30;;;;;;;;;;5075600;28;20209;-73
2022/07/31 14:01:55;;;;;;;3.47;3.17;;;;;;;;;;5075189;28;20196;-73
2022/07/31 14:04:22;;;;;;;3.35;3.15;;;;;;;;;;5074554;28;20253;-73
2022/07/31 14:06:50;;;;;;;3.05;2.85;;;;;;;;;;5075246;28;20470;-72
2022/07/31 14:09:17;;;;;;;3.38;3.17;;;;;;;;;;5074916;28;20207;-72
2022/07/31 14:11:45;;;;;;;3.60;3.40;;;;;;;;;;5075785;28;20197;-73
2022/07/31 14:14:12;;;;;;;3.40;3.10;;;;;;;;;;5074453;28;20716;-73
2022/07/31 14:16:41;;;;;;;3.13;2.92;;;;;;;;;;5074532;28;20588;-72
2022/07/31 14:19:09;;;;;;;3.08;2.88;;;;;;;;;;5075018;28;20213;-72
2022/07/31 14:21:36;;;;;;;2.67;2.55;;;;;;;;;;5075811;28;20557;-72
2022/07/31 14:24:04;;;;;;;4.57;2.90;;;;;;;;;;5075012;28;20254;-72
2022/07/31 14:26:31;;;;;;;3.10;2.90;;;;;;;;;;5073909;28;20255;-72
2022/07/31 14:28:59;;;;;;;3.33;3.03;;;;;;;;;;5073932;28;20239;-72
2022/07/31 14:31:26;;;;;;;2.90;2.70;;;;;;;;;;5074428;28;20200;-72
2022/07/31 14:33:55;;;;;;;3.30;2.95;;;;;;;;;;5074272;28;20254;-72
2022/07/31 14:36:22;;;;;;;2.90;2.70;;;;;;;;;;5073800;28;20343;-73
2022/07/31 14:38:49;;;;;;;3.03;2.83;;;;;;;;;;5074761;28;20203;-73
2022/07/31 14:41:17;;;;;;;2.70;2.50;;;;;;;;;;5073344;28;20200;-73
2022/07/31 14:43:44;;;;;;;3.10;2.90;;;;;;;;;;5073662;28;20204;-73
2022/07/31 14:46:11;;;;;;;2.92;2.72;;;;;;;;;;5073402;28;20604;-73
2022/07/31 14:48:39;;;;;;;3.10;2.90;;;;;;;;;;5074305;28;20231;-72
2022/07/31 14:51:08;;;;;;;2.70;2.50;;;;;;;;;;5074306;28;20211;-73